Overview Statistics Trail Chart Weather Telemetry Raw packets
 

This is the latest recevied weather packets stored in our database for station/object OE3CJB-13. If no packets are shown the sender has not sent any weather packets the latest 10 day(s).

<< 29 30 31 32 33 34 35 >>
Time Temp. Humidity Pressure Rain* Wind** Luminosity Snow
1788022845 24.44° C 36% 1182 hPa 0 mm - - -
1788021931 24.44° C 36% 1180.4 hPa 0 mm - - -
1788021019 24.44° C 35% 1177.3 hPa 0 mm - - -
1788020157 25° C 36% 1176.6 hPa 0 mm - - -
1788019273 25° C 36% 1176 hPa 0 mm - - -
1788018332 25° C 36% 1175.5 hPa 0 mm - - -
1788017418 25° C 37% 1175.3 hPa 0 mm - - -
1788016555 25° C 36% 1175.5 hPa 0 mm - - -
1788015645 25° C 37% 1176.3 hPa 0 mm - - -
1788014765 25.56° C 37% 1175.6 hPa 0 mm - - -
1788013867 25° C 40% 1175.6 hPa 0 mm - - -
1788012956 25° C 40% 1174.9 hPa 0 mm - - -
1788012045 25.56° C 40% 1174.3 hPa 0 mm - - -
1788011130 25° C 42% 1174.3 hPa 0 mm - - -
1788010219 25° C 43% 1173 hPa 0 mm - - -
1788009355 25° C 45% 1174.5 hPa 0 mm - - -
1788008445 24.44° C 46% 1173.7 hPa 0 mm - - -
1788007531 23.89° C 50% 1173 hPa 0 mm - - -
1788006620 23.33° C 52% 1173 hPa 0 mm - - -
1788005758 22.78° C 57% 1172.3 hPa 0 mm - - -
1788004845 22.22° C 59% 1171.6 hPa 0 mm - - -
1788003931 21.67° C 62% 1171 hPa 0 mm - - -
1788003019 21.11° C 69% 1170.4 hPa 0 mm - - -
1788002155 20° C 76% 1169.7 hPa 0 mm - - -
1788001245 18.89° C 76% 1169.8 hPa 0 mm - - -

* Rain latest hour (hover to see other rain measurements)
** Current wind speed in m/s (hover to see current wind gust speed)